Time;durP1;ratioP1;P1;durP2;ratioP2;P2;SDS_P1;SDS_P2;PMS_P1;PMS_P2;Temp;Humidity;BMP_temperature;BMP_pressure;BME280_temperature;BME280_humidity;BME280_pressure;Samples;Min_cycle;Max_cycle;Signal;HPM_P1;HPM_P2
2021/05/09 00:01:10;;;;;;;;;;;;;;;;;;5029571;28;19979;-68
2021/05/09 00:03:36;;;;;;;;;;;;;;;;;;5030808;28;19925;-69
2021/05/09 00:06:03;;;;;;;;;;;;;;;;;;5028910;28;19925;-69
2021/05/09 00:08:29;;;;;;;;;;;;;;;;;;5027202;28;19931;-69
2021/05/09 00:10:56;;;;;;;;;;;;;;;;;;5023697;28;20264;-71
2021/05/09 00:13:22;;;;;;;;;;;;;;;;;;5022447;28;20429;-70
2021/05/09 00:15:51;;;;;;;;;;;;;;;;;;5022570;28;20387;-69
2021/05/09 00:18:17;;;;;;;;;;;;;;;;;;5028447;28;19928;-69
2021/05/09 00:20:44;;;;;;;;;;;;;;;;;;5024834;28;20217;-68
2021/05/09 00:23:10;;;;;;;;;;;;;;;;;;5025626;28;19929;-70
2021/05/09 00:25:37;;;;;;;;;;;;;;;;;;5028529;28;20020;-69
2021/05/09 00:28:03;;;;;;;;;;;;;;;;;;5029050;28;19949;-70
2021/05/09 00:30:30;;;;;;;;;;;;;;;;;;5023804;28;19926;-69
2021/05/09 00:32:56;;;;;;;;;;;;;;;;;;5023093;28;19936;-69
2021/05/09 00:35:22;;;;;;;;;;;;;;;;;;5022361;28;19932;-69
2021/05/09 00:37:49;;;;;;;;;;;;;;;;;;5068968;22;19936;-64
2021/05/09 00:40:15;;;;;;;;;;;;;;;;;;5078449;28;19924;-65
2021/05/09 00:42:42;;;;;;;;;;;;;;;;;;5085182;28;20375;-68
2021/05/09 00:45:08;;;;;;;;;;;;;;;;;;5086536;28;19988;-65
2021/05/09 00:47:35;;;;;;;;;;;;;;;;;;5067209;28;19937;-64
2021/05/09 00:50:01;;;;;;;;;;;;;;;;;;5057450;28;19928;-64
2021/05/09 00:52:28;;;;;;;;;;;;;;;;;;5067736;28;19935;-65
2021/05/09 00:54:54;;;;;;;;;;;;;;;;;;5060004;28;20035;-65
2021/05/09 00:57:21;;;;;;;;;;;;;;;;;;5060859;28;20015;-65
2021/05/09 00:59:47;;;;;;;;;;;;;;;;;;5068147;28;20373;-65
2021/05/09 01:02:14;;;;;;;;;;;;;;;;;;5062223;28;19925;-66
2021/05/09 01:04:40;;;;;;;;;;;;;;;;;;5055690;28;19924;-68
2021/05/09 01:07:06;;;;;;;;;;;;;;;;;;5066316;28;19962;-66
2021/05/09 01:09:33;;;;;;;;;;;;;;;;;;5062495;28;19924;-66
2021/05/09 01:11:59;;;;;;;;;;;;;;;;;;5068948;28;19928;-64
2021/05/09 01:14:26;;;;;;;;;;;;;;;;;;5062613;28;19972;-66
2021/05/09 01:16:52;;;;;;;;;;;;;;;;;;5066805;28;19924;-67
2021/05/09 01:19:19;;;;;;;;;;;;;;;;;;5064230;28;19932;-67
2021/05/09 01:21:46;;;;;;;;;;;;;;;;;;5062920;28;19985;-67
2021/05/09 01:24:13;;;;;;;;;;;;;;;;;;5062851;28;20395;-67
2021/05/09 01:26:39;;;;;;;;;;;;;;;;;;5070598;28;19933;-64
2021/05/09 01:29:06;;;;;;;;;;;;;;;;;;5065689;28;20402;-66
2021/05/09 01:31:32;;;;;;;;;;;;;;;;;;5058729;28;20024;-64
2021/05/09 01:33:58;;;;;;;;;;;;;;;;;;5062424;28;20324;-65
2021/05/09 01:36:25;;;;;;;;;;;;;;;;;;5059803;28;19990;-64
2021/05/09 01:38:54;;;;;;;;;;;;;;;;;;5064098;28;19924;-64
2021/05/09 01:41:20;;;;;;;;;;;;;;;;;;5070130;28;19975;-64
2021/05/09 01:43:47;;;;;;;;;;;;;;;;;;5063022;28;19936;-66
2021/05/09 01:46:13;;;;;;;;;;;;;;;;;;5065312;28;19947;-67
2021/05/09 01:48:40;;;;;;;;;;;;;;;;;;5063176;28;19925;-66
2021/05/09 01:51:06;;;;;;;;;;;;;;;;;;5058858;28;19978;-65
2021/05/09 01:53:33;;;;;;;;;;;;;;;;;;5068714;28;20426;-65
2021/05/09 01:55:59;;;;;;;;;;;;;;;;;;5064119;28;19935;-70
2021/05/09 01:58:26;;;;;;;;;;;;;;;;;;5058045;28;19925;-64
2021/05/09 02:00:52;;;;;;;;;;;;;;;;;;5064336;28;19948;-65
2021/05/09 02:03:19;;;;;;;;;;;;;;;;;;5059221;28;19938;-65
2021/05/09 02:05:45;;;;;;;;;;;;;;;;;;5062198;28;20377;-65
2021/05/09 02:08:12;;;;;;;;;;;;;;;;;;5063885;28;20050;-66
2021/05/09 02:10:38;;;;;;;;;;;;;;;;;;5060999;28;20380;-67
2021/05/09 02:13:05;;;;;;;;;;;;;;;;;;5059881;28;19978;-65
2021/05/09 02:15:31;;;;;;;;;;;;;;;;;;5064236;28;19936;-66
2021/05/09 02:17:58;;;;;;;;;;;;;;;;;;5059352;28;19925;-67
2021/05/09 02:20:24;;;;;;;;;;;;;;;;;;5060369;28;20061;-68
2021/05/09 02:22:51;;;;;;;;;;;;;;;;;;5057410;28;19932;-67
2021/05/09 02:25:17;;;;;;;;;;;;;;;;;;5070399;28;20281;-66
2021/05/09 02:27:44;;;;;;;;;;;;;;;;;;5070960;28;19924;-63
2021/05/09 02:30:10;;;;;;;;;;;;;;;;;;5063063;28;20368;-67
2021/05/09 02:32:37;;;;;;;;;;;;;;;;;;5070466;28;20069;-67
2021/05/09 02:35:03;;;;;;;;;;;;;;;;;;5068852;28;19925;-65
2021/05/09 02:37:29;;;;;;;;;;;;;;;;;;5065472;28;19975;-66
2021/05/09 02:39:56;;;;;;;;;;;;;;;;;;5062210;28;19925;-65
2021/05/09 02:42:22;;;;;;;;;;;;;;;;;;5066081;28;19930;-65
2021/05/09 02:44:49;;;;;;;;;;;;;;;;;;5065070;28;19934;-66
2021/05/09 02:47:28;;;;;;;;;;;;;;;;;;5065866;28;19925;-67
2021/05/09 02:49:55;;;;;;;;;;;;;;;;;;5062476;28;19925;-67
2021/05/09 02:52:21;;;;;;;;;;;;;;;;;;5060238;28;19924;-68
2021/05/09 02:54:48;;;;;;;;;;;;;;;;;;5055395;28;19924;-68
2021/05/09 02:57:14;;;;;;;;;;;;;;;;;;5063158;28;19970;-67
2021/05/09 02:59:40;;;;;;;;;;;;;;;;;;5056762;28;19944;-65
2021/05/09 03:02:07;;;;;;;;;;;;;;;;;;5064142;28;20299;-67
2021/05/09 03:04:33;;;;;;;;;;;;;;;;;;5063592;28;19924;-67
2021/05/09 03:07:00;;;;;;;;;;;;;;;;;;5061693;28;20019;-67
2021/05/09 03:09:26;;;;;;;;;;;;;;;;;;5064061;28;19977;-65
2021/05/09 03:11:53;;;;;;;;;;;;;;;;;;5056222;28;19925;-65
2021/05/09 03:14:19;;;;;;;;;;;;;;;;;;5054342;28;19977;-65
2021/05/09 03:16:46;;;;;;;;;;;;;;;;;;5063577;28;20303;-68
2021/05/09 03:19:12;;;;;;;;;;;;;;;;;;5063081;28;19925;-65
2021/05/09 03:21:41;;;;;;;;;;;;;;;;;;5052824;28;19952;-67
2021/05/09 03:24:07;;;;;;;;;;;;;;;;;;5064814;28;19924;-67
2021/05/09 03:26:34;;;;;;;;;;;;;;;;;;5062872;28;19932;-64
2021/05/09 03:29:00;;;;;;;;;;;;;;;;;;5066105;28;20431;-67
2021/05/09 03:31:27;;;;;;;;;;;;;;;;;;5070519;28;19970;-67
2021/05/09 03:33:53;;;;;;;;;;;;;;;;;;5060894;28;20006;-67
2021/05/09 03:36:20;;;;;;;;;;;;;;;;;;5060744;28;19925;-66
2021/05/09 03:38:46;;;;;;;;;;;;;;;;;;5068261;28;20003;-71
2021/05/09 03:41:13;;;;;;;;;;;;;;;;;;5069459;28;20404;-67
2021/05/09 03:43:39;;;;;;;;;;;;;;;;;;5058430;28;19951;-66
2021/05/09 03:46:05;;;;;;;;;;;;;;;;;;5060460;28;19924;-67
2021/05/09 03:48:32;;;;;;;;;;;;;;;;;;5065919;28;20011;-66
2021/05/09 03:50:58;;;;;;;;;;;;;;;;;;5057971;28;19982;-66
2021/05/09 03:53:27;;;;;;;;;;;;;;;;;;5063865;28;20415;-67
2021/05/09 03:55:53;;;;;;;;;;;;;;;;;;5057012;28;20389;-66
2021/05/09 03:58:20;;;;;;;;;;;;;;;;;;5058488;28;19924;-68
2021/05/09 04:00:46;;;;;;;;;;;;;;;;;;5057905;28;20442;-66
2021/05/09 04:03:13;;;;;;;;;;;;;;;;;;5058488;28;20329;-67
2021/05/09 04:05:39;;;;;;;;;;;;;;;;;;5058340;28;19933;-67
2021/05/09 04:08:06;;;;;;;;;;;;;;;;;;5062178;28;20634;-67
2021/05/09 04:10:32;;;;;;;;;;;;;;;;;;5058872;28;20066;-65
2021/05/09 04:12:59;;;;;;;;;;;;;;;;;;5058752;28;19977;-67
2021/05/09 04:15:25;;;;;;;;;;;;;;;;;;5067292;28;19924;-67
2021/05/09 04:17:52;;;;;;;;;;;;;;;;;;5064785;28;19925;-67
2021/05/09 04:20:18;;;;;;;;;;;;;;;;;;5057508;28;19931;-67
2021/05/09 04:22:45;;;;;;;;;;;;;;;;;;5055329;28;19946;-66
2021/05/09 04:25:11;;;;;;;;;;;;;;;;;;5063668;28;19933;-67
2021/05/09 04:27:38;;;;;;;;;;;;;;;;;;5060426;28;19931;-66
2021/05/09 04:30:04;;;;;;;;;;;;;;;;;;5059265;28;19925;-66
2021/05/09 04:32:31;;;;;;;;;;;;;;;;;;5061746;28;19931;-67
2021/05/09 04:34:57;;;;;;;;;;;;;;;;;;5062396;28;19931;-66
2021/05/09 04:37:24;;;;;;;;;;;;;;;;;;5059971;28;19930;-67
2021/05/09 04:39:50;;;;;;;;;;;;;;;;;;5063676;28;20027;-67
2021/05/09 04:42:17;;;;;;;;;;;;;;;;;;5068513;28;19993;-66
2021/05/09 04:44:43;;;;;;;;;;;;;;;;;;5060631;28;20008;-67
2021/05/09 04:47:10;;;;;;;;;;;;;;;;;;5062552;28;20008;-66
2021/05/09 04:49:36;;;;;;;;;;;;;;;;;;5064757;28;20348;-66
2021/05/09 04:52:02;;;;;;;;;;;;;;;;;;5065749;28;20278;-67
2021/05/09 04:54:29;;;;;;;;;;;;;;;;;;5071390;28;20390;-68
2021/05/09 04:56:55;;;;;;;;;;;;;;;;;;5065898;28;20292;-67
2021/05/09 04:59:22;;;;;;;;;;;;;;;;;;5066234;28;20373;-66
2021/05/09 05:01:48;;;;;;;;;;;;;;;;;;5064423;28;19932;-66
2021/05/09 05:04:15;;;;;;;;;;;;;;;;;;5061193;28;20376;-67
2021/05/09 05:06:41;;;;;;;;;;;;;;;;;;5065783;28;20002;-67
2021/05/09 05:09:08;;;;;;;;;;;;;;;;;;5058963;28;19958;-67
2021/05/09 05:11:34;;;;;;;;;;;;;;;;;;5060969;28;19924;-67
2021/05/09 05:14:01;;;;;;;;;;;;;;;;;;5070686;28;19939;-67
2021/05/09 05:16:29;;;;;;;;;;;;;;;;;;5065751;28;19925;-67
2021/05/09 05:18:55;;;;;;;;;;;;;;;;;;5067640;28;19954;-66
2021/05/09 05:21:22;;;;;;;;;;;;;;;;;;5060758;28;20471;-66
2021/05/09 05:23:48;;;;;;;;;;;;;;;;;;5067509;28;19957;-67
2021/05/09 05:26:15;;;;;;;;;;;;;;;;;;5067351;28;20479;-67
2021/05/09 05:28:41;;;;;;;;;;;;;;;;;;5064973;28;19929;-67
2021/05/09 05:31:08;;;;;;;;;;;;;;;;;;5063528;28;19978;-66
2021/05/09 05:33:34;;;;;;;;;;;;;;;;;;5069602;28;19924;-67
2021/05/09 05:36:01;;;;;;;;;;;;;;;;;;5055142;28;19935;-67
2021/05/09 05:38:27;;;;;;;;;;;;;;;;;;5056214;28;19999;-67
2021/05/09 05:40:55;;;;;;;;;;;;;;;;;;5057324;28;19928;-66
2021/05/09 05:43:21;;;;;;;;;;;;;;;;;;5059342;28;19928;-65
2021/05/09 05:45:48;;;;;;;;;;;;;;;;;;5060710;28;20433;-67
2021/05/09 05:48:14;;;;;;;;;;;;;;;;;;5066034;28;19982;-68
2021/05/09 05:50:40;;;;;;;;;;;;;;;;;;5068707;28;19928;-68
2021/05/09 05:53:07;;;;;;;;;;;;;;;;;;5067154;28;19924;-67
2021/05/09 05:55:33;;;;;;;;;;;;;;;;;;5057376;28;20011;-70
2021/05/09 05:58:00;;;;;;;;;;;;;;;;;;5060657;28;20447;-67
2021/05/09 06:00:26;;;;;;;;;;;;;;;;;;5057828;28;19925;-66
2021/05/09 06:02:53;;;;;;;;;;;;;;;;;;5062522;28;19929;-67
2021/05/09 06:05:19;;;;;;;;;;;;;;;;;;5065670;28;19944;-66
2021/05/09 06:07:46;;;;;;;;;;;;;;;;;;5058303;28;20307;-67
2021/05/09 06:10:12;;;;;;;;;;;;;;;;;;5057238;28;19924;-66
2021/05/09 06:12:39;;;;;;;;;;;;;;;;;;5061904;28;20064;-67
2021/05/09 06:15:05;;;;;;;;;;;;;;;;;;5063312;28;19990;-67
2021/05/09 06:17:32;;;;;;;;;;;;;;;;;;5059463;28;20307;-66
2021/05/09 06:20:00;;;;;;;;;;;;;;;;;;5065805;28;19944;-65
2021/05/09 06:22:26;;;;;;;;;;;;;;;;;;5063475;28;20296;-65
2021/05/09 06:24:56;;;;;;;;;;;;;;;;;;5056514;28;19941;-66
2021/05/09 06:27:22;;;;;;;;;;;;;;;;;;5064291;28;19924;-66
2021/05/09 06:29:50;;;;;;;;;;;;;;;;;;5064732;28;19928;-67
2021/05/09 06:32:16;;;;;;;;;;;;;;;;;;5065044;28;20442;-65
2021/05/09 06:34:43;;;;;;;;;;;;;;;;;;5067336;28;20023;-66
2021/05/09 06:37:11;;;;;;;;;;;;;;;;;;5064513;28;19931;-67
2021/05/09 06:39:37;;;;;;;;;;;;;;;;;;5068775;28;19968;-67
2021/05/09 06:42:04;;;;;;;;;;;;;;;;;;5063221;28;19956;-66
2021/05/09 06:44:33;;;;;;;;;;;;;;;;;;5066754;28;19925;-66
2021/05/09 06:47:01;;;;;;;;;;;;;;;;;;5059700;28;19929;-66
2021/05/09 06:49:27;;;;;;;;;;;;;;;;;;5061195;28;19928;-65
2021/05/09 06:51:54;;;;;;;;;;;;;;;;;;5060129;28;19937;-66
2021/05/09 06:54:20;;;;;;;;;;;;;;;;;;5062820;28;19931;-67
2021/05/09 06:56:47;;;;;;;;;;;;;;;;;;5065838;28;20392;-65
2021/05/09 06:59:13;;;;;;;;;;;;;;;;;;5065101;28;19924;-65
2021/05/09 07:01:39;;;;;;;;;;;;;;;;;;5063660;28;19975;-64
2021/05/09 07:04:06;;;;;;;;;;;;;;;;;;5063323;28;19979;-63
2021/05/09 07:06:33;;;;;;;;;;;;;;;;;;5067267;28;19925;-63
2021/05/09 07:09:00;;;;;;;;;;;;;;;;;;5062320;28;19973;-63
2021/05/09 07:11:27;;;;;;;;;;;;;;;;;;5068246;28;19925;-63
2021/05/09 07:13:54;;;;;;;;;;;;;;;;;;5053837;28;19932;-64
2021/05/09 07:16:21;;;;;;;;;;;;;;;;;;5053558;28;20342;-63
2021/05/09 07:18:47;;;;;;;;;;;;;;;;;;5062558;28;19967;-63
2021/05/09 07:21:16;;;;;;;;;;;;;;;;;;5060519;28;19925;-64
2021/05/09 07:23:47;;;;;;;;;;;;;;;;;;5057789;28;19925;-64
2021/05/09 07:26:13;;;;;;;;;;;;;;;;;;5060666;28;22103;-63
2021/05/09 07:28:40;;;;;;;;;;;;;;;;;;5061671;28;20355;-64
2021/05/09 07:31:06;;;;;;;;;;;;;;;;;;5057608;28;20038;-64
2021/05/09 07:33:33;;;;;;;;;;;;;;;;;;5063859;28;19924;-63
2021/05/09 07:35:59;;;;;;;;;;;;;;;;;;5063829;28;19928;-64
2021/05/09 07:38:26;;;;;;;;;;;;;;;;;;5062180;28;19947;-64
2021/05/09 07:40:52;;;;;;;;;;;;;;;;;;5059495;28;19932;-64
2021/05/09 07:43:19;;;;;;;;;;;;;;;;;;5063133;28;19929;-64
2021/05/09 07:45:45;;;;;;;;;;;;;;;;;;5061753;28;19969;-65
2021/05/09 07:48:12;;;;;;;;;;;;;;;;;;5063722;28;19947;-65
2021/05/09 07:50:38;;;;;;;;;;;;;;;;;;5062447;28;20170;-64
2021/05/09 07:53:05;;;;;;;;;;;;;;;;;;5061052;28;19932;-64
2021/05/09 07:55:31;;;;;;;;;;;;;;;;;;5060424;28;19933;-64
2021/05/09 07:57:58;;;;;;;;;;;;;;;;;;5056117;28;19925;-64
2021/05/09 08:00:24;;;;;;;;;;;;;;;;;;5057505;28;19924;-64
2021/05/09 08:02:50;;;;;;;;;;;;;;;;;;5063492;28;20003;-64
2021/05/09 08:05:17;;;;;;;;;;;;;;;;;;5055570;28;19925;-64
2021/05/09 08:07:43;;;;;;;;;;;;;;;;;;5063959;28;19943;-64
2021/05/09 08:10:10;;;;;;;;;;;;;;;;;;5059224;28;20419;-65
2021/05/09 08:12:36;;;;;;;;;;;;;;;;;;5060868;28;19925;-64
2021/05/09 08:15:03;;;;;;;;;;;;;;;;;;5063212;28;20027;-64
2021/05/09 08:17:30;;;;;;;;;;;;;;;;;;5062114;28;20433;-63
2021/05/09 08:19:56;;;;;;;;;;;;;;;;;;5060119;28;19931;-64
2021/05/09 08:22:23;;;;;;;;;;;;;;;;;;5060164;28;20294;-63
2021/05/09 08:24:49;;;;;;;;;;;;;;;;;;5059717;28;20575;-64
2021/05/09 08:27:15;;;;;;;;;;;;;;;;;;5056288;28;19931;-64
2021/05/09 08:29:42;;;;;;;;;;;;;;;;;;5053778;28;20388;-64
2021/05/09 08:32:09;;;;;;;;;;;;;;;;;;5059393;28;19934;-63
2021/05/09 08:34:35;;;;;;;;;;;;;;;;;;5067062;28;20379;-62
2021/05/09 08:37:02;;;;;;;;;;;;;;;;;;5060133;28;19929;-62
2021/05/09 08:39:28;;;;;;;;;;;;;;;;;;5064134;28;20391;-62
2021/05/09 08:41:55;;;;;;;;;;;;;;;;;;5053678;28;20398;-64
2021/05/09 08:44:24;;;;;;;;;;;;;;;;;;5053824;28;19925;-63
2021/05/09 08:46:50;;;;;;;;;;;;;;;;;;5065129;28;20019;-63
2021/05/09 08:49:17;;;;;;;;;;;;;;;;;;5062913;28;19924;-63
2021/05/09 08:51:43;;;;;;;;;;;;;;;;;;5061483;28;20022;-63
2021/05/09 08:54:10;;;;;;;;;;;;;;;;;;5062309;28;19924;-64
2021/05/09 08:56:36;;;;;;;;;;;;;;;;;;5059760;28;20304;-64
2021/05/09 08:59:03;;;;;;;;;;;;;;;;;;5064824;28;19940;-65
2021/05/09 09:01:29;;;;;;;;;;;;;;;;;;5055457;28;19929;-65
2021/05/09 09:03:56;;;;;;;;;;;;;;;;;;5062347;28;20023;-63
2021/05/09 09:06:22;;;;;;;;;;;;;;;;;;5061362;28;20025;-63
2021/05/09 09:08:49;;;;;;;;;;;;;;;;;;5062864;28;20303;-63
2021/05/09 09:11:15;;;;;;;;;;;;;;;;;;5059122;28;19932;-63
2021/05/09 09:13:42;;;;;;;;;;;;;;;;;;5060923;28;19925;-65
2021/05/09 09:16:08;;;;;;;;;;;;;;;;;;5061297;28;19933;-65
2021/05/09 09:18:35;;;;;;;;;;;;;;;;;;5058671;28;19936;-65
2021/05/09 09:21:01;;;;;;;;;;;;;;;;;;5060849;28;19933;-63
2021/05/09 09:23:28;;;;;;;;;;;;;;;;;;5061848;28;20020;-64
2021/05/09 09:25:54;;;;;;;;;;;;;;;;;;5061587;28;20389;-64
2021/05/09 09:28:21;;;;;;;;;;;;;;;;;;5063231;28;19925;-64
2021/05/09 09:30:47;;;;;;;;;;;;;;;;;;5059371;28;20292;-64
2021/05/09 09:33:14;;;;;;;;;;;;;;;;;;5059597;28;20011;-65
2021/05/09 09:35:41;;;;;;;;;;;;;;;;;;5063321;28;20019;-63
2021/05/09 09:38:07;;;;;;;;;;;;;;;;;;5066575;28;20026;-64
2021/05/09 09:40:34;;;;;;;;;;;;;;;;;;5061084;28;20669;-65
2021/05/09 09:43:00;;;;;;;;;;;;;;;;;;5066143;28;19932;-65
2021/05/09 09:45:28;;;;;;;;;;;;;;;;;;5065431;28;20349;-65
2021/05/09 09:47:54;;;;;;;;;;;;;;;;;;5062189;28;20563;-63
2021/05/09 09:50:21;;;;;;;;;;;;;;;;;;5060209;28;19924;-65
2021/05/09 09:52:47;;;;;;;;;;;;;;;;;;5065712;28;19924;-66
2021/05/09 09:55:14;;;;;;;;;;;;;;;;;;5060470;28;19931;-65
2021/05/09 09:57:40;;;;;;;;;;;;;;;;;;5065146;28;20041;-66
2021/05/09 10:00:07;;;;;;;;;;;;;;;;;;5062134;28;20016;-65
2021/05/09 10:02:33;;;;;;;;;;;;;;;;;;5062757;28;19931;-67
2021/05/09 10:05:00;;;;;;;;;;;;;;;;;;5064690;28;19932;-64
2021/05/09 10:07:26;;;;;;;;;;;;;;;;;;5063551;28;20011;-65
2021/05/09 10:09:53;;;;;;;;;;;;;;;;;;5061067;28;20045;-66
2021/05/09 10:12:19;;;;;;;;;;;;;;;;;;5063698;28;20358;-65
2021/05/09 10:14:46;;;;;;;;;;;;;;;;;;5063949;28;20358;-66
2021/05/09 10:17:12;;;;;;;;;;;;;;;;;;5063789;28;19935;-62
2021/05/09 10:19:39;;;;;;;;;;;;;;;;;;5059693;28;20372;-63
2021/05/09 10:22:05;;;;;;;;;;;;;;;;;;5066400;28;19931;-64
2021/05/09 10:24:32;;;;;;;;;;;;;;;;;;5063275;28;19976;-64
2021/05/09 10:26:59;;;;;;;;;;;;;;;;;;5065146;28;19929;-62
2021/05/09 10:29:25;;;;;;;;;;;;;;;;;;5063870;28;19931;-63
2021/05/09 10:31:52;;;;;;;;;;;;;;;;;;5061195;28;20374;-63
2021/05/09 10:34:18;;;;;;;;;;;;;;;;;;5063261;28;19935;-63
2021/05/09 10:36:45;;;;;;;;;;;;;;;;;;5063500;28;19932;-62
2021/05/09 10:39:11;;;;;;;;;;;;;;;;;;5063731;28;20295;-61
2021/05/09 10:41:38;;;;;;;;;;;;;;;;;;5061960;28;19928;-62
2021/05/09 10:44:04;;;;;;;;;;;;;;;;;;5066740;28;19982;-61
2021/05/09 10:46:31;;;;;;;;;;;;;;;;;;5061707;28;19960;-61
2021/05/09 10:48:57;;;;;;;;;;;;;;;;;;5061996;28;20004;-65
2021/05/09 10:51:25;;;;;;;;;;;;;;;;;;5062987;28;20407;-62
2021/05/09 10:53:52;;;;;;;;;;;;;;;;;;5063050;28;20019;-64
2021/05/09 10:56:19;;;;;;;;;;;;;;;;;;5060564;28;19932;-64
2021/05/09 10:58:46;;;;;;;;;;;;;;;;;;5064885;28;20381;-66
2021/05/09 11:01:13;;;;;;;;;;;;;;;;;;5061530;28;19924;-65
2021/05/09 11:03:40;;;;;;;;;;;;;;;;;;5062733;28;19925;-64
2021/05/09 11:06:06;;;;;;;;;;;;;;;;;;5063032;28;20055;-65
2021/05/09 11:08:33;;;;;;;;;;;;;;;;;;5064073;28;19924;-65
2021/05/09 11:10:59;;;;;;;;;;;;;;;;;;5060417;28;19928;-62
2021/05/09 11:13:26;;;;;;;;;;;;;;;;;;5059584;28;19925;-65
2021/05/09 11:15:52;;;;;;;;;;;;;;;;;;5066379;28;20413;-65
2021/05/09 11:18:19;;;;;;;;;;;;;;;;;;5062370;28;19960;-63
2021/05/09 11:20:46;;;;;;;;;;;;;;;;;;5060336;28;19931;-66
2021/05/09 11:23:15;;;;;;;;;;;;;;;;;;5062061;28;19978;-67
2021/05/09 11:25:41;;;;;;;;;;;;;;;;;;5062699;28;19969;-64
2021/05/09 11:28:08;;;;;;;;;;;;;;;;;;5058465;28;19936;-64
2021/05/09 11:30:34;;;;;;;;;;;;;;;;;;5062389;28;19925;-62
2021/05/09 11:33:01;;;;;;;;;;;;;;;;;;5062417;28;19932;-63
2021/05/09 11:35:27;;;;;;;;;;;;;;;;;;5062685;28;20258;-63
2021/05/09 11:37:54;;;;;;;;;;;;;;;;;;5060521;28;20095;-63
2021/05/09 11:40:20;;;;;;;;;;;;;;;;;;5059652;28;20393;-63
2021/05/09 11:42:47;;;;;;;;;;;;;;;;;;5061790;28;20684;-64
2021/05/09 11:45:14;;;;;;;;;;;;;;;;;;5061872;28;19973;-65
2021/05/09 11:47:41;;;;;;;;;;;;;;;;;;5062149;28;20418;-65
2021/05/09 11:50:08;;;;;;;;;;;;;;;;;;5063839;28;19960;-64
2021/05/09 11:52:35;;;;;;;;;;;;;;;;;;5061464;28;20300;-65
2021/05/09 11:55:02;;;;;;;;;;;;;;;;;;5063650;28;20029;-63
2021/05/09 11:57:28;;;;;;;;;;;;;;;;;;5059541;28;19933;-66
2021/05/09 11:59:57;;;;;;;;;;;;;;;;;;5060366;28;20018;-66
2021/05/09 12:02:23;;;;;;;;;;;;;;;;;;5059940;28;20240;-66
2021/05/09 12:04:50;;;;;;;;;;;;;;;;;;5059738;28;19924;-65
2021/05/09 12:07:16;;;;;;;;;;;;;;;;;;5060574;28;19952;-65
2021/05/09 12:09:43;;;;;;;;;;;;;;;;;;5060308;28;19936;-62
2021/05/09 12:12:09;;;;;;;;;;;;;;;;;;5063963;28;19933;-62
2021/05/09 12:14:36;;;;;;;;;;;;;;;;;;5060172;28;20396;-62
2021/05/09 12:17:02;;;;;;;;;;;;;;;;;;5060291;28;19931;-62
2021/05/09 12:19:29;;;;;;;;;;;;;;;;;;5055255;28;19956;-63
2021/05/09 12:21:55;;;;;;;;;;;;;;;;;;5058942;28;20005;-64
2021/05/09 12:24:22;;;;;;;;;;;;;;;;;;5059589;28;19936;-64
2021/05/09 12:26:48;;;;;;;;;;;;;;;;;;5062332;28;19931;-64
2021/05/09 12:29:15;;;;;;;;;;;;;;;;;;5061990;28;19943;-64
2021/05/09 12:31:41;;;;;;;;;;;;;;;;;;5061144;28;19925;-63
2021/05/09 12:34:08;;;;;;;;;;;;;;;;;;5059938;28;19932;-64
2021/05/09 12:36:35;;;;;;;;;;;;;;;;;;5063914;28;19924;-65
2021/05/09 12:39:03;;;;;;;;;;;;;;;;;;5053663;22;19928;-68
2021/05/09 12:41:30;;;;;;;;;;;;;;;;;;5033302;28;19932;-69
2021/05/09 12:43:56;;;;;;;;;;;;;;;;;;5032342;28;20388;-69
2021/05/09 12:46:23;;;;;;;;;;;;;;;;;;5034006;28;20027;-71
2021/05/09 12:48:49;;;;;;;;;;;;;;;;;;5027081;28;19929;-69
2021/05/09 12:51:18;;;;;;;;;;;;;;;;;;5030162;28;19968;-71
2021/05/09 12:53:45;;;;;;;;;;;;;;;;;;5022340;28;19925;-70
2021/05/09 12:56:12;;;;;;;;;;;;;;;;;;5033887;28;19929;-70
2021/05/09 12:58:38;;;;;;;;;;;;;;;;;;5034889;28;19965;-69
2021/05/09 13:01:05;;;;;;;;;;;;;;;;;;5034267;28;19975;-71
2021/05/09 13:03:31;;;;;;;;;;;;;;;;;;5036111;28;20376;-70
2021/05/09 13:05:58;;;;;;;;;;;;;;;;;;5030772;28;19935;-70
2021/05/09 13:08:24;;;;;;;;;;;;;;;;;;5041183;28;19929;-70
2021/05/09 13:10:51;;;;;;;;;;;;;;;;;;5033617;28;20030;-69
2021/05/09 13:13:17;;;;;;;;;;;;;;;;;;5035068;28;19928;-71
2021/05/09 13:15:44;;;;;;;;;;;;;;;;;;5039041;28;19978;-68
2021/05/09 13:18:11;;;;;;;;;;;;;;;;;;5033288;28;20039;-69
2021/05/09 13:20:38;;;;;;;;;;;;;;;;;;5033499;28;21154;-70
2021/05/09 13:23:04;;;;;;;;;;;;;;;;;;5035444;28;19955;-69
2021/05/09 13:25:33;;;;;;;;;;;;;;;;;;5034964;28;19979;-70
2021/05/09 13:27:59;;;;;;;;;;;;;;;;;;5034567;28;19932;-69
2021/05/09 13:30:26;;;;;;;;;;;;;;;;;;5032876;28;19936;-69
2021/05/09 13:32:52;;;;;;;;;;;;;;;;;;5034814;28;19991;-70
2021/05/09 13:35:19;;;;;;;;;;;;;;;;;;5037281;28;19929;-70
2021/05/09 13:37:45;;;;;;;;;;;;;;;;;;5042715;28;20012;-69
2021/05/09 13:40:12;;;;;;;;;;;;;;;;;;5053122;28;19947;-69
2021/05/09 13:42:38;;;;;;;;;;;;;;;;;;5047775;28;20024;-71
2021/05/09 13:45:05;;;;;;;;;;;;;;;;;;5033051;28;19936;-67
2021/05/09 13:47:32;;;;;;;;;;;;;;;;;;5032074;28;20553;-67
2021/05/09 13:49:59;;;;;;;;;;;;;;;;;;5045312;28;19925;-69
2021/05/09 13:52:25;;;;;;;;;;;;;;;;;;5046930;28;19996;-68
2021/05/09 13:54:52;;;;;;;;;;;;;;;;;;5051739;28;19960;-67
2021/05/09 13:57:18;;;;;;;;;;;;;;;;;;5030428;28;19960;-69
2021/05/09 13:59:45;;;;;;;;;;;;;;;;;;5041785;28;19948;-69
2021/05/09 14:02:11;;;;;;;;;;;;;;;;;;5048744;28;19935;-68
2021/05/09 14:04:38;;;;;;;;;;;;;;;;;;5049931;28;19925;-68
2021/05/09 14:07:04;;;;;;;;;;;;;;;;;;5042464;28;19929;-68
2021/05/09 14:09:31;;;;;;;;;;;;;;;;;;5036932;28;19947;-68
2021/05/09 14:12:00;;;;;;;;;;;;;;;;;;5036604;28;20008;-69
2021/05/09 14:14:27;;;;;;;;;;;;;;;;;;5031185;28;19933;-67
2021/05/09 14:16:53;;;;;;;;;;;;;;;;;;5037176;28;21105;-68
2021/05/09 14:19:20;;;;;;;;;;;;;;;;;;5031056;28;19968;-70
2021/05/09 14:21:47;;;;;;;;;;;;;;;;;;5034120;28;20393;-68
2021/05/09 14:24:13;;;;;;;;;;;;;;;;;;5035427;28;19984;-70
2021/05/09 14:26:40;;;;;;;;;;;;;;;;;;5032663;28;19971;-69
2021/05/09 14:29:06;;;;;;;;;;;;;;;;;;5030759;28;19935;-69
2021/05/09 14:31:33;;;;;;;;;;;;;;;;;;5033663;28;19984;-67
2021/05/09 14:33:59;;;;;;;;;;;;;;;;;;5030838;28;20500;-67
2021/05/09 14:36:26;;;;;;;;;;;;;;;;;;5026860;28;19925;-67
2021/05/09 14:38:52;;;;;;;;;;;;;;;;;;5023688;28;19929;-67
2021/05/09 14:41:19;;;;;;;;;;;;;;;;;;5028223;28;19925;-68
2021/05/09 14:43:45;;;;;;;;;;;;;;;;;;5027774;28;20034;-71
2021/05/09 14:46:12;;;;;;;;;;;;;;;;;;5019807;28;20390;-70
2021/05/09 14:48:38;;;;;;;;;;;;;;;;;;5021007;28;20416;-70
2021/05/09 14:51:05;;;;;;;;;;;;;;;;;;5022501;28;19959;-70
2021/05/09 14:53:31;;;;;;;;;;;;;;;;;;5022423;28;19932;-70
2021/05/09 14:55:58;;;;;;;;;;;;;;;;;;5030937;28;19965;-70
2021/05/09 14:58:24;;;;;;;;;;;;;;;;;;5025370;28;19929;-69
2021/05/09 15:00:51;;;;;;;;;;;;;;;;;;5027374;28;19983;-69
2021/05/09 15:03:17;;;;;;;;;;;;;;;;;;5025970;28;19925;-71
2021/05/09 15:05:44;;;;;;;;;;;;;;;;;;5027109;28;19931;-66
2021/05/09 15:08:10;;;;;;;;;;;;;;;;;;5024565;28;21764;-68
2021/05/09 15:10:37;;;;;;;;;;;;;;;;;;5026748;28;20427;-69
2021/05/09 15:13:03;;;;;;;;;;;;;;;;;;5028349;28;19932;-68
2021/05/09 15:15:30;;;;;;;;;;;;;;;;;;5025553;28;19957;-69
2021/05/09 15:17:57;;;;;;;;;;;;;;;;;;5025322;28;20362;-69
2021/05/09 15:20:23;;;;;;;;;;;;;;;;;;5025529;28;20418;-70
2021/05/09 15:22:49;;;;;;;;;;;;;;;;;;5027169;28;19971;-68
2021/05/09 15:25:16;;;;;;;;;;;;;;;;;;5021862;28;19925;-70
2021/05/09 15:27:42;;;;;;;;;;;;;;;;;;5027268;28;19925;-68
2021/05/09 15:30:09;;;;;;;;;;;;;;;;;;5032225;28;19993;-68
2021/05/09 15:32:35;;;;;;;;;;;;;;;;;;5035318;28;20365;-70
2021/05/09 15:35:02;;;;;;;;;;;;;;;;;;5033726;28;20399;-69
2021/05/09 15:37:28;;;;;;;;;;;;;;;;;;5030188;28;19971;-72
2021/05/09 15:39:55;;;;;;;;;;;;;;;;;;5025197;28;19925;-66
2021/05/09 15:42:21;;;;;;;;;;;;;;;;;;5028086;28;20364;-71
2021/05/09 15:44:48;;;;;;;;;;;;;;;;;;5038113;28;19925;-67
2021/05/09 15:47:14;;;;;;;;;;;;;;;;;;5032212;28;20022;-70
2021/05/09 15:49:41;;;;;;;;;;;;;;;;;;5032293;28;19996;-72
2021/05/09 15:52:09;;;;;;;;;;;;;;;;;;5035790;28;20369;-71
2021/05/09 15:54:36;;;;;;;;;;;;;;;;;;5031673;28;20324;-68
2021/05/09 15:57:02;;;;;;;;;;;;;;;;;;5035225;28;20416;-69
2021/05/09 15:59:29;;;;;;;;;;;;;;;;;;5032570;28;19931;-69
2021/05/09 16:01:55;;;;;;;;;;;;;;;;;;5030741;28;20036;-65
2021/05/09 16:04:22;;;;;;;;;;;;;;;;;;5033620;28;20040;-69
2021/05/09 16:06:48;;;;;;;;;;;;;;;;;;5036617;28;19931;-70
2021/05/09 16:09:15;;;;;;;;;;;;;;;;;;5039744;28;19924;-69
2021/05/09 16:11:42;;;;;;;;;;;;;;;;;;5038587;28;19932;-70
2021/05/09 16:14:08;;;;;;;;;;;;;;;;;;5031606;28;19947;-71
2021/05/09 16:16:35;;;;;;;;;;;;;;;;;;5039782;28;19968;-71
2021/05/09 16:19:02;;;;;;;;;;;;;;;;;;5035877;28;19933;-71
2021/05/09 16:21:28;;;;;;;;;;;;;;;;;;5039371;28;20122;-69
2021/05/09 16:23:55;;;;;;;;;;;;;;;;;;5036229;28;20343;-71
2021/05/09 16:26:22;;;;;;;;;;;;;;;;;;5039398;28;19947;-71
2021/05/09 16:28:48;;;;;;;;;;;;;;;;;;5038396;28;19932;-69
2021/05/09 16:31:15;;;;;;;;;;;;;;;;;;5040696;28;20506;-71
2021/05/09 16:33:42;;;;;;;;;;;;;;;;;;5041913;28;19929;-71
2021/05/09 16:36:08;;;;;;;;;;;;;;;;;;5043896;28;20265;-72
2021/05/09 16:38:35;;;;;;;;;;;;;;;;;;5047533;28;20394;-72
2021/05/09 16:41:04;;;;;;;;;;;;;;;;;;5042526;28;19931;-70